createdAt,value
2019-01-10T00:01:44.664Z,3.37
2019-01-10T00:04:14.085Z,3.41
2019-01-10T00:06:43.441Z,3.37
2019-01-10T00:09:12.896Z,3.30
2019-01-10T00:11:42.250Z,3.30
2019-01-10T00:14:11.599Z,3.25
2019-01-10T00:16:40.948Z,3.29
2019-01-10T00:19:10.296Z,3.23
2019-01-10T00:21:39.684Z,3.18
2019-01-10T00:24:09.016Z,3.18
2019-01-10T00:26:38.367Z,3.11
2019-01-10T00:29:07.726Z,3.15
2019-01-10T00:31:37.088Z,3.16
2019-01-10T00:34:06.434Z,3.15
2019-01-10T00:36:35.784Z,3.14
2019-01-10T00:39:07.462Z,3.11
2019-01-10T00:41:37.074Z,3.07
2019-01-10T00:44:06.469Z,3.02
2019-01-10T00:46:35.966Z,3.06
2019-01-10T00:49:05.378Z,3.07
2019-01-10T00:51:34.874Z,3.08
2019-01-10T00:54:04.338Z,3.13
2019-01-10T00:56:33.693Z,3.07
2019-01-10T00:59:03.041Z,3.04
2019-01-10T01:01:32.395Z,2.87
2019-01-10T01:04:01.856Z,2.86
2019-01-10T01:06:31.395Z,2.77
2019-01-10T01:09:00.728Z,2.60
2019-01-10T01:11:30.074Z,2.51
2019-01-10T01:13:59.420Z,2.34
2019-01-10T01:16:28.774Z,2.19
2019-01-10T01:18:58.110Z,2.09
2019-01-10T01:21:27.456Z,1.99
2019-01-10T01:23:56.796Z,1.97
2019-01-10T01:26:26.147Z,1.91
2019-01-10T01:28:55.488Z,1.92
2019-01-10T01:31:24.840Z,1.81
2019-01-10T01:33:54.176Z,1.71
2019-01-10T01:36:23.645Z,1.61
2019-01-10T01:38:53.079Z,1.51
2019-01-10T01:41:22.427Z,1.46
2019-01-10T01:43:51.838Z,1.35
2019-01-10T01:46:21.210Z,1.25
2019-01-10T01:48:50.636Z,1.22
2019-01-10T01:51:19.992Z,1.14
2019-01-10T01:53:49.330Z,1.07
2019-01-10T01:56:18.675Z,1.09
2019-01-10T01:58:48.101Z,1.17
2019-01-10T02:01:17.459Z,1.18
2019-01-10T02:03:46.910Z,1.23
2019-01-10T02:06:16.444Z,1.26
2019-01-10T02:08:45.778Z,1.29
2019-01-10T02:11:15.127Z,1.30
2019-01-10T02:13:44.479Z,1.32
2019-01-10T02:16:13.825Z,1.36
2019-01-10T02:18:43.168Z,1.33
2019-01-10T02:21:12.511Z,1.32
2019-01-10T02:23:41.852Z,1.29
2019-01-10T02:26:11.256Z,1.25
2019-01-10T02:28:40.671Z,1.34
2019-01-10T02:31:10.030Z,1.34
2019-01-10T02:33:39.398Z,1.34
2019-01-10T02:36:08.748Z,1.32
2019-01-10T02:38:38.231Z,1.31
2019-01-10T02:41:07.570Z,1.32
2019-01-10T02:43:36.919Z,1.30
2019-01-10T02:46:06.264Z,1.38
2019-01-10T02:48:35.634Z,1.33
2019-01-10T02:51:04.976Z,1.38
2019-01-10T02:53:34.327Z,1.45
2019-01-10T02:56:03.707Z,1.45
2019-01-10T02:58:33.020Z,1.39
2019-01-10T03:01:02.358Z,1.38
2019-01-10T03:03:31.695Z,1.39
2019-01-10T03:06:01.033Z,1.44
2019-01-10T03:08:30.385Z,1.44
2019-01-10T03:10:59.737Z,1.46
2019-01-10T03:13:36.500Z,1.50
2019-01-10T03:16:00.362Z,1.53
2019-01-10T03:18:29.740Z,1.59
2019-01-10T03:20:59.120Z,1.62
2019-01-10T03:23:28.789Z,1.61
2019-01-10T03:25:58.328Z,1.62
2019-01-10T03:28:27.719Z,1.70
2019-01-10T03:30:57.171Z,1.80
2019-01-10T03:33:26.775Z,1.77
2019-01-10T03:35:56.186Z,1.71
2019-01-10T03:38:25.780Z,1.77
2019-01-10T03:40:55.356Z,1.74
2019-01-10T03:43:24.896Z,1.76
2019-01-10T03:45:54.563Z,1.81
2019-01-10T03:48:23.971Z,1.82
2019-01-10T03:50:53.407Z,1.79
2019-01-10T03:53:22.897Z,1.82
2019-01-10T03:55:52.401Z,1.83
2019-01-10T03:58:21.940Z,1.82
2019-01-10T04:00:51.386Z,1.78
2019-01-10T04:03:20.944Z,1.83
2019-01-10T04:05:50.583Z,1.82
2019-01-10T04:08:20.266Z,1.83
2019-01-10T04:10:49.768Z,1.88
2019-01-10T04:13:19.219Z,1.86
2019-01-10T04:15:48.660Z,1.86
2019-01-10T04:18:18.179Z,1.88
2019-01-10T04:20:47.689Z,1.93
2019-01-10T04:23:17.105Z,1.94
2019-01-10T04:25:46.602Z,1.91
2019-01-10T04:28:16.137Z,1.85
2019-01-10T04:30:46.434Z,1.76
2019-01-10T04:33:15.975Z,1.75
2019-01-10T04:35:45.445Z,1.78
2019-01-10T04:38:14.938Z,1.74
2019-01-10T04:40:44.380Z,1.77
2019-01-10T04:43:13.942Z,1.71
2019-01-10T04:45:43.402Z,1.71
2019-01-10T04:48:13.036Z,1.76
2019-01-10T04:50:42.732Z,1.80
2019-01-10T04:53:12.267Z,1.85
2019-01-10T04:55:41.743Z,1.88
2019-01-10T04:58:11.364Z,1.87
2019-01-10T05:00:41.067Z,1.83
2019-01-10T05:03:10.525Z,1.80
2019-01-10T05:05:40.124Z,1.81
2019-01-10T05:08:09.608Z,1.83
2019-01-10T05:10:39.044Z,1.88
2019-01-10T05:13:08.546Z,1.89
2019-01-10T05:15:38.059Z,1.93
2019-01-10T05:18:08.171Z,1.93
2019-01-10T05:20:37.849Z,1.96
2019-01-10T05:23:07.388Z,1.92
2019-01-10T05:25:36.929Z,1.81
2019-01-10T05:28:06.354Z,1.81
2019-01-10T05:30:35.819Z,1.86
2019-01-10T05:33:05.321Z,1.86
2019-01-10T05:35:34.762Z,1.77
2019-01-10T05:38:04.199Z,1.86
2019-01-10T05:40:33.669Z,1.87
2019-01-10T05:43:03.115Z,1.77
2019-01-10T05:45:32.593Z,1.77
2019-01-10T05:48:02.017Z,1.80
2019-01-10T05:50:31.452Z,1.83
2019-01-10T05:53:00.924Z,1.85
2019-01-10T05:55:30.423Z,1.95
2019-01-10T05:57:59.833Z,1.98
2019-01-10T06:00:29.585Z,2.01
2019-01-10T06:02:59.697Z,2.02
2019-01-10T06:05:29.254Z,2.05
2019-01-10T06:07:58.797Z,1.96
2019-01-10T06:10:29.593Z,1.98
2019-01-10T06:12:59.467Z,2.05
2019-01-10T06:15:28.958Z,2.12
2019-01-10T06:17:58.467Z,2.09
2019-01-10T06:20:28.032Z,1.94
2019-01-10T06:22:57.609Z,2.04
2019-01-10T06:25:27.237Z,2.15
2019-01-10T06:27:56.708Z,2.23
2019-01-10T06:30:26.245Z,2.32
2019-01-10T06:32:55.928Z,2.39
2019-01-10T06:35:25.461Z,2.44
2019-01-10T06:37:54.957Z,2.52
2019-01-10T06:40:24.530Z,2.59
2019-01-10T06:42:54.057Z,2.62
2019-01-10T06:45:23.546Z,2.65
2019-01-10T06:47:53.161Z,2.67
2019-01-10T06:50:22.804Z,2.74
2019-01-10T06:52:52.249Z,2.80
2019-01-10T06:55:21.667Z,2.73
2019-01-10T06:57:51.275Z,2.80
2019-01-10T07:00:25.261Z,2.85
2019-01-10T07:02:55.288Z,2.96
2019-01-10T07:05:24.952Z,2.97
2019-01-10T07:07:56.752Z,3.03
2019-01-10T07:10:30.058Z,3.14
2019-01-10T07:12:59.654Z,3.09
2019-01-10T07:15:29.221Z,3.14
2019-01-10T07:17:58.873Z,3.10
2019-01-10T07:20:28.331Z,3.17
2019-01-10T07:22:57.902Z,3.12
2019-01-10T07:25:27.446Z,3.12
2019-01-10T07:27:57.029Z,3.12
2019-01-10T07:30:35.764Z,3.17
2019-01-10T07:32:59.056Z,3.30
2019-01-10T07:35:28.614Z,3.38
2019-01-10T07:37:58.308Z,3.41
2019-01-10T07:40:28.379Z,3.14
2019-01-10T07:42:57.981Z,2.78
2019-01-10T07:45:28.393Z,2.68
2019-01-10T07:47:57.906Z,2.66
2019-01-10T07:50:32.307Z,2.63
2019-01-10T07:53:02.112Z,2.76
2019-01-10T07:55:31.646Z,2.81
2019-01-10T07:58:01.055Z,2.75
2019-01-10T08:00:30.461Z,2.75
2019-01-10T08:03:00.004Z,2.74
2019-01-10T08:05:29.459Z,2.78
2019-01-10T08:07:58.877Z,3.02
2019-01-10T08:10:28.334Z,3.21
2019-01-10T08:12:57.823Z,3.23
2019-01-10T08:15:27.284Z,3.43
2019-01-10T08:17:56.687Z,3.60
2019-01-10T08:20:26.366Z,3.72
2019-01-10T08:22:55.774Z,4.09
2019-01-10T08:25:25.308Z,4.24
2019-01-10T08:27:54.741Z,4.45
2019-01-10T08:30:25.537Z,4.78
2019-01-10T08:32:55.056Z,4.88
2019-01-10T08:35:26.348Z,5.26
2019-01-10T08:37:55.859Z,5.43
2019-01-10T08:40:25.347Z,5.54
2019-01-10T08:42:54.852Z,5.53
2019-01-10T08:45:24.351Z,5.50
2019-01-10T08:47:53.880Z,5.53
2019-01-10T08:50:27.598Z,5.21
2019-01-10T08:52:57.175Z,5.20
2019-01-10T08:55:26.660Z,4.90
2019-01-10T08:57:56.292Z,4.68
2019-01-10T09:00:26.460Z,4.65
2019-01-10T09:02:56.232Z,4.70
2019-01-10T09:05:25.788Z,4.83
2019-01-10T09:07:55.264Z,4.95
2019-01-10T09:10:32.513Z,4.97
2019-01-10T09:13:01.935Z,4.96
2019-01-10T09:15:34.661Z,5.09
2019-01-10T09:18:02.688Z,5.17
2019-01-10T09:20:32.207Z,4.99
2019-01-10T09:23:01.649Z,5.13
2019-01-10T09:25:31.099Z,5.30
2019-01-10T09:28:00.532Z,5.14
2019-01-10T09:30:30.007Z,4.62
2019-01-10T09:32:59.504Z,4.64
2019-01-10T09:35:28.903Z,4.78
2019-01-10T09:37:58.291Z,4.80
2019-01-10T09:40:27.770Z,4.60
2019-01-10T09:42:57.200Z,4.56
2019-01-10T09:45:27.071Z,4.67
2019-01-10T09:47:56.664Z,4.79
2019-01-10T09:50:26.122Z,5.05
2019-01-10T09:52:55.601Z,5.14
2019-01-10T09:55:25.086Z,5.09
2019-01-10T09:57:54.576Z,5.17
2019-01-10T10:00:26.426Z,5.23
2019-01-10T10:02:55.944Z,5.18
2019-01-10T10:05:25.371Z,5.27
2019-01-10T10:07:54.831Z,5.10
2019-01-10T10:10:25.668Z,5.39
2019-01-10T10:12:55.116Z,5.45
2019-01-10T10:15:24.589Z,5.53
2019-01-10T10:17:53.963Z,5.42
2019-01-10T10:20:24.829Z,5.17
2019-01-10T10:22:54.478Z,5.01
2019-01-10T10:25:26.002Z,4.83
2019-01-10T10:27:55.181Z,4.65
2019-01-10T10:30:24.595Z,4.68
2019-01-10T10:32:53.983Z,4.91
2019-01-10T10:35:23.973Z,4.99
2019-01-10T10:37:53.433Z,4.84
2019-01-10T10:40:23.264Z,4.78
2019-01-10T10:42:53.303Z,4.93
2019-01-10T10:45:23.164Z,4.70
2019-01-10T10:47:52.633Z,4.77
2019-01-10T10:50:29.303Z,5.08
2019-01-10T10:52:58.813Z,5.17
2019-01-10T10:55:28.340Z,5.31
2019-01-10T10:57:57.763Z,5.28
2019-01-10T11:00:29.343Z,5.26
2019-01-10T11:02:58.771Z,5.21
2019-01-10T11:05:28.285Z,5.10
2019-01-10T11:07:57.787Z,5.13
2019-01-10T11:10:27.203Z,5.06
2019-01-10T11:12:56.589Z,4.94
2019-01-10T11:15:26.135Z,4.88
2019-01-10T11:17:55.699Z,4.61
2019-01-10T11:20:25.220Z,4.38
2019-01-10T11:22:55.141Z,4.46
2019-01-10T11:25:26.273Z,4.52
2019-01-10T11:27:56.039Z,4.52
2019-01-10T11:30:25.556Z,4.64
2019-01-10T11:32:55.164Z,4.65
2019-01-10T11:35:24.548Z,4.73
2019-01-10T11:37:53.976Z,4.85
2019-01-10T11:40:23.769Z,5.00
2019-01-10T11:42:53.263Z,5.15
2019-01-10T11:45:29.271Z,5.27
2019-01-10T11:47:58.787Z,5.46
2019-01-10T11:50:28.197Z,5.47
2019-01-10T11:52:57.592Z,5.43
2019-01-10T11:55:27.062Z,5.35
2019-01-10T11:57:56.566Z,5.31
2019-01-10T12:00:31.234Z,5.21
2019-01-10T12:03:02.262Z,5.10
2019-01-10T12:05:31.638Z,4.83
2019-01-10T12:08:01.095Z,4.91
2019-01-10T12:10:30.597Z,4.97
2019-01-10T12:13:00.066Z,5.01
2019-01-10T12:15:29.459Z,4.92
2019-01-10T12:17:58.888Z,4.95
2019-01-10T12:20:28.409Z,4.93
2019-01-10T12:22:57.963Z,5.11
2019-01-10T12:25:27.470Z,5.18
2019-01-10T12:27:56.967Z,5.10
2019-01-10T12:30:27.129Z,4.88
2019-01-10T12:32:56.661Z,4.69
2019-01-10T12:35:26.552Z,4.53
2019-01-10T12:37:56.171Z,4.51
2019-01-10T12:40:25.634Z,4.37
2019-01-10T12:42:55.189Z,4.10
2019-01-10T12:45:24.637Z,4.06
2019-01-10T12:47:54.046Z,3.96
2019-01-10T12:50:33.511Z,3.93
2019-01-10T12:53:10.059Z,3.86
2019-01-10T12:55:40.135Z,3.79
2019-01-10T12:58:09.894Z,3.80
2019-01-10T13:00:39.387Z,3.80
2019-01-10T13:03:08.793Z,3.68
2019-01-10T13:05:38.328Z,3.63
2019-01-10T13:08:07.836Z,3.63
2019-01-10T13:10:37.225Z,3.66
2019-01-10T13:13:06.858Z,3.65
2019-01-10T13:15:36.327Z,3.66
2019-01-10T13:18:05.911Z,3.54
2019-01-10T13:20:35.297Z,3.39
2019-01-10T13:23:04.831Z,3.32
2019-01-10T13:25:34.273Z,3.28
2019-01-10T13:28:03.662Z,3.35
2019-01-10T13:30:33.142Z,3.38
2019-01-10T13:33:02.579Z,3.38
2019-01-10T13:35:32.000Z,3.41
2019-01-10T13:38:01.403Z,3.42
2019-01-10T13:40:30.895Z,3.32
2019-01-10T13:43:00.271Z,3.36
2019-01-10T13:45:29.863Z,3.36
2019-01-10T13:47:59.652Z,3.38
2019-01-10T13:50:30.684Z,3.37
2019-01-10T13:53:00.253Z,3.33
2019-01-10T13:55:29.784Z,3.37
2019-01-10T13:57:59.390Z,3.41
2019-01-10T14:00:35.414Z,3.44
2019-01-10T14:03:01.968Z,3.40
2019-01-10T14:05:31.397Z,3.39
2019-01-10T14:08:00.800Z,3.37
2019-01-10T14:10:30.335Z,3.38
2019-01-10T14:12:59.920Z,3.38
2019-01-10T14:15:31.765Z,3.39
2019-01-10T14:18:01.258Z,3.32
2019-01-10T14:20:30.796Z,3.22
2019-01-10T14:23:00.186Z,3.13
2019-01-10T14:25:29.779Z,3.09
2019-01-10T14:27:59.810Z,3.03
2019-01-10T14:30:35.127Z,3.01
2019-01-10T14:33:04.799Z,3.04
2019-01-10T14:35:34.432Z,3.06
2019-01-10T14:38:04.075Z,3.04
2019-01-10T14:40:33.616Z,2.99
2019-01-10T14:43:03.177Z,2.95
2019-01-10T14:45:32.726Z,2.87
2019-01-10T14:48:02.250Z,2.81
2019-01-10T14:50:31.847Z,2.82
2019-01-10T14:53:01.295Z,2.79
2019-01-10T14:55:30.709Z,2.73
2019-01-10T14:58:00.074Z,2.74
2019-01-10T15:00:29.617Z,2.75
2019-01-10T15:02:59.154Z,2.73
2019-01-10T15:05:34.157Z,2.68
2019-01-10T15:07:59.992Z,2.61
2019-01-10T15:10:29.444Z,2.44
2019-01-10T15:12:58.991Z,2.35
2019-01-10T15:15:28.561Z,2.28
2019-01-10T15:17:58.217Z,2.30
2019-01-10T15:20:29.508Z,2.31
2019-01-10T15:22:59.008Z,2.36
2019-01-10T15:25:28.458Z,2.38
2019-01-10T15:27:57.909Z,2.32
2019-01-10T15:30:28.815Z,2.30
2019-01-10T15:32:58.398Z,2.20
2019-01-10T15:35:27.803Z,2.16
2019-01-10T15:37:57.370Z,2.21
2019-01-10T15:40:29.299Z,2.12
2019-01-10T15:42:58.737Z,2.12
2019-01-10T15:45:28.279Z,2.19
2019-01-10T15:47:57.769Z,2.27
2019-01-10T15:50:27.304Z,2.28
2019-01-10T15:52:56.773Z,2.24
2019-01-10T15:55:26.236Z,2.29
2019-01-10T15:57:55.704Z,2.32
2019-01-10T16:00:25.467Z,2.31
2019-01-10T16:02:54.945Z,2.36
2019-01-10T16:05:24.475Z,2.42
2019-01-10T16:07:53.908Z,2.43
2019-01-10T16:10:23.485Z,2.39
2019-01-10T16:12:53.053Z,2.39
2019-01-10T16:15:26.315Z,2.37
2019-01-10T16:17:55.549Z,2.40
2019-01-10T16:20:25.192Z,2.40
2019-01-10T16:22:54.661Z,2.42
2019-01-10T16:25:24.159Z,2.40
2019-01-10T16:27:53.619Z,2.40
2019-01-10T16:30:25.465Z,2.44
2019-01-10T16:32:55.046Z,2.45
2019-01-10T16:35:24.690Z,2.51
2019-01-10T16:37:54.196Z,2.50
2019-01-10T16:40:23.727Z,2.52
2019-01-10T16:42:53.264Z,2.54
2019-01-10T16:45:24.788Z,2.57
2019-01-10T16:47:54.271Z,2.53
2019-01-10T16:50:23.862Z,2.47
2019-01-10T16:52:53.955Z,2.47
2019-01-10T16:55:23.418Z,2.48
2019-01-10T16:57:52.978Z,2.41
2019-01-10T17:00:30.473Z,2.34
2019-01-10T17:04:00.132Z,2.35
2019-01-10T17:07:17.436Z,2.22
2019-01-10T17:09:46.996Z,2.10
2019-01-10T17:12:16.507Z,2.02
2019-01-10T17:14:46.069Z,2.00
2019-01-10T17:17:15.638Z,2.04
2019-01-10T17:19:45.173Z,2.01
2019-01-10T17:22:14.573Z,1.98
2019-01-10T17:24:44.153Z,1.92
2019-01-10T17:27:13.532Z,1.93
2019-01-10T17:29:42.945Z,1.79
2019-01-10T17:32:12.442Z,1.83
2019-01-10T17:34:41.961Z,1.75
2019-01-10T17:37:11.521Z,1.73
2019-01-10T17:39:40.965Z,1.71
2019-01-10T17:42:10.474Z,1.67
2019-01-10T17:44:39.908Z,1.70
2019-01-10T17:47:09.623Z,1.73
2019-01-10T17:49:39.210Z,1.76
2019-01-10T17:52:08.730Z,1.75
2019-01-10T17:54:38.504Z,1.78
2019-01-10T17:57:08.073Z,1.77
2019-01-10T17:59:37.566Z,1.74
2019-01-10T18:02:07.156Z,1.71
2019-01-10T18:04:36.810Z,1.82
2019-01-10T18:07:06.205Z,1.85
2019-01-10T18:09:35.738Z,1.83
2019-01-10T18:13:00.630Z,1.81
2019-01-10T18:16:18.784Z,1.90
2019-01-10T18:19:41.115Z,1.97
2019-01-10T18:22:21.058Z,2.05
2019-01-10T18:25:56.216Z,2.04
2019-01-10T18:28:25.716Z,2.08
2019-01-10T18:31:37.271Z,2.05
2019-01-10T18:34:06.861Z,1.95
2019-01-10T18:37:35.782Z,1.93
2019-01-10T18:41:05.556Z,1.86
2019-01-10T18:43:58.893Z,1.88
2019-01-10T18:47:36.094Z,1.79
2019-01-10T18:50:07.326Z,1.74
2019-01-10T18:53:54.977Z,1.72
2019-01-10T18:56:30.202Z,1.63
2019-01-10T19:00:00.758Z,1.60
2019-01-10T19:02:50.951Z,1.51
2019-01-10T19:05:57.319Z,1.40
2019-01-10T19:09:09.729Z,1.40
2019-01-10T19:11:39.342Z,1.45
2019-01-10T19:14:08.855Z,1.47
2019-01-10T19:16:38.278Z,1.48
2019-01-10T19:19:07.894Z,1.54
2019-01-10T19:21:37.506Z,1.60
2019-01-10T19:24:06.959Z,1.59
2019-01-10T19:26:36.443Z,1.54
2019-01-10T19:29:05.938Z,1.61
2019-01-10T19:31:35.493Z,1.58
2019-01-10T19:34:04.957Z,1.59
2019-01-10T19:36:34.617Z,1.57
2019-01-10T19:39:05.661Z,1.61
2019-01-10T19:41:35.163Z,1.58
2019-01-10T19:44:04.689Z,1.56
2019-01-10T19:46:34.387Z,1.53
2019-01-10T19:49:04.142Z,1.45
2019-01-10T19:51:33.646Z,1.44
2019-01-10T19:54:03.171Z,1.48
2019-01-10T19:56:32.602Z,1.46
2019-01-10T19:59:02.056Z,1.44
2019-01-10T20:01:31.681Z,1.42
2019-01-10T20:04:01.058Z,1.40
2019-01-10T20:06:32.684Z,1.42
2019-01-10T20:09:02.242Z,1.47
2019-01-10T20:11:31.887Z,1.45
2019-01-10T20:14:01.431Z,1.41
2019-01-10T20:16:31.115Z,1.41
2019-01-10T20:19:00.636Z,1.43
2019-01-10T20:21:30.156Z,1.45
2019-01-10T20:23:59.687Z,1.35
2019-01-10T20:26:29.271Z,1.29
2019-01-10T20:28:58.836Z,1.37
2019-01-10T20:31:28.778Z,1.40
2019-01-10T20:34:00.154Z,1.38
2019-01-10T20:36:29.643Z,1.34
2019-01-10T20:38:59.145Z,1.36
2019-01-10T20:41:31.755Z,1.39
2019-01-10T20:44:01.240Z,1.35
2019-01-10T20:46:30.838Z,1.31
2019-01-10T20:49:01.521Z,1.31
2019-01-10T20:51:31.118Z,1.30
2019-01-10T20:54:00.629Z,1.32
2019-01-10T20:56:30.269Z,1.36
2019-01-10T20:58:59.695Z,1.38
2019-01-10T21:01:29.422Z,1.39
2019-01-10T21:04:02.045Z,1.40
2019-01-10T21:06:31.672Z,1.39
2019-01-10T21:09:01.240Z,1.43
2019-01-10T21:11:30.850Z,1.43
2019-01-10T21:14:00.481Z,1.43
2019-01-10T21:16:29.998Z,1.37
2019-01-10T21:18:59.796Z,1.46
2019-01-10T21:21:32.287Z,1.47
2019-01-10T21:24:01.857Z,1.46
2019-01-10T21:26:31.349Z,1.47
2019-01-10T21:29:00.850Z,1.37
2019-01-10T21:31:30.562Z,1.39
2019-01-10T21:34:00.207Z,1.39
2019-01-10T21:36:29.890Z,1.42
2019-01-10T21:38:59.378Z,1.41
2019-01-10T21:41:31.699Z,1.45
2019-01-10T21:44:01.379Z,1.46
2019-01-10T21:46:30.990Z,1.52
2019-01-10T21:49:00.448Z,1.55
2019-01-10T21:51:32.820Z,1.59
2019-01-10T21:54:02.679Z,1.54
2019-01-10T21:56:32.208Z,1.59
2019-01-10T21:59:01.880Z,1.67
2019-01-10T22:01:31.529Z,1.72
2019-01-10T22:04:01.209Z,1.74
2019-01-10T22:06:30.637Z,1.66
2019-01-10T22:09:00.230Z,1.61
2019-01-10T22:11:29.728Z,1.58
2019-01-10T22:13:59.288Z,1.61
2019-01-10T22:16:29.186Z,1.49
2019-01-10T22:18:58.914Z,1.49
2019-01-10T22:21:28.396Z,1.57
2019-01-10T22:23:58.174Z,1.62
2019-01-10T22:26:27.782Z,1.54
2019-01-10T22:28:57.205Z,1.55
2019-01-10T22:31:26.661Z,1.57
2019-01-10T22:33:56.202Z,1.49
2019-01-10T22:36:25.633Z,1.54
2019-01-10T22:38:55.152Z,1.53
2019-01-10T22:41:24.717Z,1.53
2019-01-10T22:43:54.175Z,1.61
2019-01-10T22:46:23.693Z,1.62
2019-01-10T22:48:53.185Z,1.57
2019-01-10T22:51:22.720Z,1.58
2019-01-10T22:53:52.782Z,1.56
2019-01-10T22:56:22.363Z,1.62
2019-01-10T22:58:51.803Z,1.59
2019-01-10T23:01:45.962Z,1.66
2019-01-10T23:04:19.355Z,1.74
2019-01-10T23:06:49.054Z,1.77
2019-01-10T23:09:18.584Z,1.79
2019-01-10T23:11:48.161Z,1.75
2019-01-10T23:14:17.784Z,1.77
2019-01-10T23:16:47.248Z,1.77
2019-01-10T23:19:16.775Z,1.76
2019-01-10T23:21:46.382Z,1.72
2019-01-10T23:24:26.624Z,1.69
2019-01-10T23:26:55.149Z,1.66
2019-01-10T23:29:32.090Z,1.68
2019-01-10T23:32:06.418Z,1.65
2019-01-10T23:34:35.963Z,1.62
2019-01-10T23:37:05.468Z,1.53
2019-01-10T23:39:34.868Z,1.52
2019-01-10T23:42:04.301Z,1.48
2019-01-10T23:44:33.986Z,1.49
2019-01-10T23:47:03.656Z,1.46
2019-01-10T23:49:33.107Z,1.46
2019-01-10T23:52:02.565Z,1.46
2019-01-10T23:54:32.024Z,1.44
2019-01-10T23:57:01.471Z,1.44
2019-01-10T23:59:31.064Z,1.42
